createdAt,value
2018-06-03T00:00:59.709Z,36.43
2018-06-03T00:03:27.464Z,34.70
2018-06-03T00:05:56.008Z,35.77
2018-06-03T00:08:24.336Z,34.83
2018-06-03T00:10:51.914Z,37.40
2018-06-03T00:13:19.601Z,37.60
2018-06-03T00:15:48.081Z,37.73
2018-06-03T00:18:15.938Z,37.20
2018-06-03T00:21:07.270Z,37.67
2018-06-03T00:23:34.879Z,39.90
2018-06-03T00:26:03.238Z,38.00
2018-06-03T00:28:30.787Z,37.47
2018-06-03T00:30:59.278Z,37.67
2018-06-03T00:33:26.773Z,39.90
2018-06-03T00:36:06.151Z,38.50
2018-06-03T00:38:33.733Z,39.13
2018-06-03T00:41:01.245Z,38.60
2018-06-03T00:43:29.987Z,38.57
2018-06-03T00:45:57.523Z,41.90
2018-06-03T00:48:25.071Z,34.47
2018-06-03T00:50:53.371Z,39.47
2018-06-03T00:53:21.643Z,40.60
2018-06-03T00:55:49.211Z,41.60
2018-06-03T00:58:16.817Z,38.40
2018-06-03T01:00:44.363Z,41.67
2018-06-03T01:03:12.659Z,39.80
2018-06-03T01:05:40.930Z,37.10
2018-06-03T01:08:08.580Z,37.53
2018-06-03T01:10:36.311Z,41.27
2018-06-03T01:13:04.067Z,41.20
2018-06-03T01:15:32.335Z,40.10
2018-06-03T01:17:59.864Z,42.07
2018-06-03T01:20:27.358Z,39.00
2018-06-03T01:22:55.082Z,41.07
2018-06-03T01:25:23.369Z,40.00
2018-06-03T01:27:51.659Z,38.13
2018-06-03T01:30:19.941Z,39.67
2018-06-03T01:32:48.231Z,40.77
2018-06-03T01:35:16.539Z,41.17
2018-06-03T01:37:44.043Z,39.93
2018-06-03T01:40:11.682Z,43.10
2018-06-03T01:42:39.357Z,40.40
2018-06-03T01:45:06.907Z,41.03
2018-06-03T01:48:06.808Z,40.60
2018-06-03T01:50:35.183Z,40.77
2018-06-03T01:53:03.322Z,41.23
2018-06-03T01:55:31.521Z,37.80
2018-06-03T01:57:59.629Z,40.83
2018-06-03T02:00:28.096Z,40.53
2018-06-03T02:02:56.264Z,42.03
2018-06-03T02:05:24.578Z,40.37
2018-06-03T02:07:52.962Z,43.83
2018-06-03T02:10:21.126Z,40.53
2018-06-03T02:12:49.302Z,39.47
2018-06-03T02:15:17.479Z,40.57
2018-06-03T02:17:45.754Z,37.70
2018-06-03T02:20:14.104Z,39.80
2018-06-03T02:22:42.243Z,40.07
2018-06-03T02:25:10.395Z,38.93
2018-06-03T02:27:38.657Z,34.57
2018-06-03T02:30:06.984Z,36.53
2018-06-03T02:32:35.227Z,35.73
2018-06-03T02:35:03.415Z,37.90
2018-06-03T02:37:31.756Z,37.03
2018-06-03T02:40:00.000Z,36.50
2018-06-03T02:42:28.210Z,35.97
2018-06-03T02:44:56.420Z,37.03
2018-06-03T02:47:24.816Z,33.40
2018-06-03T02:49:53.054Z,34.90
2018-06-03T02:52:20.952Z,33.30
2018-06-03T02:54:49.144Z,35.30
2018-06-03T02:57:17.278Z,33.03
2018-06-03T02:59:45.433Z,33.33
2018-06-03T03:02:13.596Z,33.00
2018-06-03T03:04:41.780Z,32.27
2018-06-03T03:07:09.930Z,30.97
2018-06-03T03:09:38.074Z,30.23
2018-06-03T03:12:06.185Z,33.07
2018-06-03T03:14:34.497Z,31.53
2018-06-03T03:17:02.652Z,31.20
2018-06-03T03:19:30.978Z,29.43
2018-06-03T03:21:59.189Z,30.60
2018-06-03T03:24:27.329Z,30.77
2018-06-03T03:26:55.664Z,28.67
2018-06-03T03:29:24.027Z,28.50
2018-06-03T03:31:52.270Z,28.90
2018-06-03T03:34:20.391Z,29.80
2018-06-03T03:36:48.605Z,28.73
2018-06-03T03:39:16.877Z,30.40
2018-06-03T03:41:45.040Z,31.10
2018-06-03T03:44:13.251Z,31.20
2018-06-03T03:46:41.531Z,27.67
2018-06-03T03:49:09.652Z,32.50
2018-06-03T03:51:37.819Z,33.77
2018-06-03T03:54:06.093Z,32.43
2018-06-03T03:56:34.277Z,30.97
2018-06-03T03:59:02.415Z,31.03
2018-06-03T04:01:30.543Z,29.13
2018-06-03T04:03:58.716Z,30.33
2018-06-03T04:06:26.833Z,29.20
2018-06-03T04:08:54.997Z,31.20
2018-06-03T04:11:23.202Z,29.93
2018-06-03T04:13:51.391Z,30.67
2018-06-03T04:16:19.631Z,30.30
2018-06-03T04:18:47.951Z,30.00
2018-06-03T04:21:16.147Z,31.57
2018-06-03T04:23:44.472Z,29.53
2018-06-03T04:26:12.799Z,32.10
2018-06-03T04:28:40.945Z,30.07
2018-06-03T04:31:09.172Z,30.30
2018-06-03T04:33:37.342Z,30.03
2018-06-03T04:36:05.769Z,31.83
2018-06-03T04:38:33.939Z,31.90
2018-06-03T04:41:02.145Z,29.27
2018-06-03T04:43:30.379Z,31.23
2018-06-03T04:45:58.712Z,35.37
2018-06-03T04:48:26.978Z,31.80
2018-06-03T04:50:55.092Z,32.33
2018-06-03T04:53:23.388Z,31.10
2018-06-03T04:55:51.506Z,33.07
2018-06-03T04:58:19.736Z,35.43
2018-06-03T05:00:47.909Z,33.47
2018-06-03T05:03:16.018Z,33.50
2018-06-03T05:05:44.255Z,32.27
2018-06-03T05:08:12.414Z,31.40
2018-06-03T05:10:40.644Z,32.23
2018-06-03T05:13:08.800Z,36.17
2018-06-03T05:15:36.952Z,34.23
2018-06-03T05:18:05.268Z,34.13
2018-06-03T05:20:33.430Z,31.40
2018-06-03T05:23:01.572Z,30.60
2018-06-03T05:25:29.668Z,34.97
2018-06-03T05:27:57.979Z,36.10
2018-06-03T05:30:26.631Z,32.20
2018-06-03T05:32:54.746Z,36.50
2018-06-03T05:35:22.926Z,34.60
2018-06-03T05:37:51.190Z,37.53
2018-06-03T05:40:19.496Z,37.83
2018-06-03T05:42:47.757Z,36.97
2018-06-03T05:45:15.980Z,34.30
2018-06-03T05:47:44.196Z,34.17
2018-06-03T05:50:12.483Z,35.10
2018-06-03T05:52:40.689Z,32.53
2018-06-03T05:55:08.924Z,36.03
2018-06-03T05:57:37.048Z,33.87
2018-06-03T06:00:05.345Z,34.43
2018-06-03T06:02:33.513Z,37.27
2018-06-03T06:05:01.645Z,33.07
2018-06-03T06:07:29.841Z,31.87
2018-06-03T06:09:58.013Z,35.27
2018-06-03T06:12:26.163Z,33.80
2018-06-03T06:14:54.336Z,34.47
2018-06-03T06:17:22.509Z,32.63
2018-06-03T06:19:50.666Z,33.30
2018-06-03T06:22:18.791Z,33.50
2018-06-03T06:24:46.995Z,32.23
2018-06-03T06:27:15.205Z,30.90
2018-06-03T06:29:43.357Z,34.20
2018-06-03T06:32:11.511Z,35.83
2018-06-03T06:34:39.839Z,32.60
2018-06-03T06:37:08.199Z,33.87
2018-06-03T06:39:36.582Z,33.80
2018-06-03T06:42:04.801Z,33.23
2018-06-03T06:44:33.029Z,24.43
2018-06-03T06:47:01.369Z,26.80
2018-06-03T06:49:29.568Z,33.70
2018-06-03T06:51:57.903Z,31.80
2018-06-03T06:54:26.817Z,31.90
2018-06-03T06:56:54.993Z,28.53
2018-06-03T06:59:23.121Z,33.30
2018-06-03T07:01:51.285Z,34.17
2018-06-03T07:04:19.437Z,26.00
2018-06-03T07:06:47.699Z,34.70
2018-06-03T07:09:15.946Z,30.40
2018-06-03T07:11:44.120Z,30.17
2018-06-03T07:14:12.367Z,36.33
2018-06-03T07:16:40.574Z,39.80
2018-06-03T07:19:08.933Z,34.03
2018-06-03T07:21:37.072Z,39.13
2018-06-03T07:24:05.402Z,29.93
2018-06-03T07:26:33.629Z,34.23
2018-06-03T07:29:02.360Z,34.23
2018-06-03T07:31:30.515Z,37.57
2018-06-03T07:33:58.950Z,41.40
2018-06-03T07:36:27.116Z,38.50
2018-06-03T07:38:55.291Z,33.37
2018-06-03T07:41:23.531Z,36.00
2018-06-03T07:43:51.895Z,30.30
2018-06-03T07:46:20.125Z,38.63
2018-06-03T07:48:48.395Z,36.97
2018-06-03T07:51:16.685Z,36.90
2018-06-03T07:53:44.978Z,37.60
2018-06-03T07:56:13.235Z,37.90
2018-06-03T07:58:41.190Z,35.90
2018-06-03T08:01:09.784Z,37.40
2018-06-03T08:03:37.948Z,37.30
2018-06-03T08:06:06.412Z,35.93
2018-06-03T08:08:34.463Z,35.90
2018-06-03T08:11:02.822Z,35.57
2018-06-03T08:13:31.087Z,35.73
2018-06-03T08:15:59.419Z,33.60
2018-06-03T08:18:27.903Z,33.90
2018-06-03T08:20:56.100Z,31.80
2018-06-03T08:23:24.276Z,30.00
2018-06-03T08:25:52.474Z,30.80
2018-06-03T08:28:20.654Z,31.70
2018-06-03T08:30:48.848Z,34.90
2018-06-03T08:33:16.983Z,32.17
2018-06-03T08:35:45.231Z,37.70
2018-06-03T08:38:13.457Z,35.40
2018-06-03T08:40:41.710Z,36.83
2018-06-03T08:43:09.921Z,36.27
2018-06-03T08:45:38.727Z,40.87
2018-06-03T08:48:07.005Z,39.67
2018-06-03T08:50:36.426Z,37.63
2018-06-03T08:53:04.593Z,36.20
2018-06-03T08:55:32.725Z,34.50
2018-06-03T08:58:00.941Z,37.40
2018-06-03T09:00:29.154Z,31.60
2018-06-03T09:02:58.173Z,35.33
2018-06-03T09:05:26.565Z,32.33
2018-06-03T09:07:55.420Z,36.70
2018-06-03T09:10:24.086Z,33.37
2018-06-03T09:12:52.347Z,35.47
2018-06-03T09:15:20.513Z,35.13
2018-06-03T09:17:48.668Z,37.20
2018-06-03T09:20:16.907Z,36.60
2018-06-03T09:22:46.882Z,35.93
2018-06-03T09:25:15.432Z,37.13
2018-06-03T09:27:43.838Z,36.00
2018-06-03T09:30:11.843Z,37.27
2018-06-03T09:32:40.129Z,35.83
2018-06-03T09:35:08.385Z,33.37
2018-06-03T09:37:37.042Z,34.00
2018-06-03T09:40:05.280Z,33.50
2018-06-03T09:42:33.449Z,30.90
2018-06-03T09:45:01.740Z,33.83
2018-06-03T09:47:29.867Z,35.03
2018-06-03T09:49:58.200Z,33.83
2018-06-03T09:52:28.031Z,32.20
2018-06-03T09:54:56.323Z,33.50
2018-06-03T09:57:24.664Z,34.47
2018-06-03T09:59:52.839Z,34.20
2018-06-03T10:02:21.922Z,33.60
2018-06-03T10:04:50.301Z,33.03
2018-06-03T10:07:18.779Z,31.30
2018-06-03T10:09:47.129Z,32.60
2018-06-03T10:12:15.413Z,33.80
2018-06-03T10:14:43.826Z,30.50
2018-06-03T10:17:12.134Z,31.17
2018-06-03T10:19:40.405Z,30.90
2018-06-03T10:22:08.743Z,30.33
2018-06-03T10:24:37.141Z,31.60
2018-06-03T10:27:05.541Z,30.50
2018-06-03T10:29:34.864Z,30.10
2018-06-03T10:32:03.109Z,28.80
2018-06-03T10:34:31.350Z,29.87
2018-06-03T10:36:59.498Z,31.17
2018-06-03T10:39:27.724Z,31.30
2018-06-03T10:41:56.170Z,33.03
2018-06-03T10:44:24.405Z,34.33
2018-06-03T10:46:52.582Z,33.77
2018-06-03T10:49:20.771Z,32.50
2018-06-03T10:51:49.004Z,32.93
2018-06-03T10:54:17.192Z,29.13
2018-06-03T10:56:45.509Z,31.50
2018-06-03T10:59:13.699Z,29.93
2018-06-03T11:01:41.881Z,31.20
2018-06-03T11:04:10.072Z,28.93
2018-06-03T11:06:38.253Z,27.97
2018-06-03T11:09:06.848Z,30.10
2018-06-03T11:11:35.019Z,27.40
2018-06-03T11:14:03.808Z,27.17
2018-06-03T11:16:32.556Z,26.20
2018-06-03T11:19:00.857Z,27.00
2018-06-03T11:21:29.094Z,23.20
2018-06-03T11:23:57.353Z,23.60
2018-06-03T11:26:25.589Z,24.50
2018-06-03T11:28:53.737Z,22.07
2018-06-03T11:31:21.957Z,22.60
2018-06-03T11:33:50.251Z,23.13
2018-06-03T11:36:18.393Z,19.20
2018-06-03T11:38:46.642Z,16.47
2018-06-03T11:41:14.855Z,18.03
2018-06-03T11:43:43.117Z,14.70
2018-06-03T11:46:11.312Z,14.33
2018-06-03T11:48:39.542Z,13.30
2018-06-03T11:51:07.731Z,12.73
2018-06-03T11:53:35.882Z,13.20
2018-06-03T11:56:04.270Z,11.17
2018-06-03T11:58:44.359Z,11.40
2018-06-03T12:01:12.570Z,11.63
2018-06-03T12:03:40.773Z,9.90
2018-06-03T12:06:09.005Z,10.43
2018-06-03T12:08:37.172Z,10.70
2018-06-03T12:11:05.532Z,9.70
2018-06-03T12:13:33.824Z,8.40
2018-06-03T12:16:02.110Z,8.73
2018-06-03T12:18:30.309Z,8.80
2018-06-03T12:20:58.565Z,8.07
2018-06-03T12:23:26.797Z,7.77
2018-06-03T12:25:55.198Z,9.10
2018-06-03T12:28:23.316Z,9.60
2018-06-03T12:30:51.466Z,9.03
2018-06-03T12:33:19.724Z,7.70
2018-06-03T12:35:48.089Z,10.00
2018-06-03T12:38:16.207Z,9.50
2018-06-03T12:40:44.529Z,8.83
2018-06-03T12:43:12.806Z,8.17
2018-06-03T12:45:41.035Z,9.23
2018-06-03T12:48:09.043Z,9.07
2018-06-03T12:50:37.243Z,8.60
2018-06-03T12:53:05.801Z,8.40
2018-06-03T12:55:34.114Z,7.70
2018-06-03T12:58:02.258Z,8.90
2018-06-03T13:00:30.589Z,10.30
2018-06-03T13:02:58.796Z,8.20
2018-06-03T13:05:27.066Z,7.37
2018-06-03T13:07:55.354Z,8.60
2018-06-03T13:10:23.590Z,9.40
2018-06-03T13:12:51.927Z,9.37
2018-06-03T13:15:20.112Z,7.50
2018-06-03T13:17:48.351Z,6.90
2018-06-03T13:20:16.609Z,8.27
2018-06-03T13:22:44.877Z,8.33
2018-06-03T13:25:13.114Z,8.07
2018-06-03T13:27:41.277Z,7.67
2018-06-03T13:30:09.459Z,8.43
2018-06-03T13:32:37.667Z,8.50
2018-06-03T13:35:06.445Z,8.83
2018-06-03T13:37:34.731Z,7.80
2018-06-03T13:40:02.983Z,9.10
2018-06-03T13:42:31.202Z,6.93
2018-06-03T13:44:59.400Z,7.40
2018-06-03T13:47:27.664Z,7.00
2018-06-03T13:49:55.788Z,7.40
2018-06-03T13:52:24.091Z,7.93
2018-06-03T13:54:52.272Z,7.80
2018-06-03T13:57:20.786Z,8.37
2018-06-03T13:59:48.940Z,7.47
2018-06-03T14:02:17.837Z,7.90
2018-06-03T14:04:46.097Z,7.60
2018-06-03T14:07:14.235Z,8.03
2018-06-03T14:09:42.224Z,10.70
2018-06-03T14:12:10.497Z,8.07
2018-06-03T14:14:38.822Z,8.67
2018-06-03T14:17:06.982Z,7.33
2018-06-03T14:19:35.198Z,8.53
2018-06-03T14:22:03.419Z,7.17
2018-06-03T14:24:32.022Z,8.17
2018-06-03T14:27:00.190Z,7.53
2018-06-03T14:29:28.662Z,7.67
2018-06-03T14:31:56.800Z,7.87
2018-06-03T14:34:24.964Z,8.53
2018-06-03T14:36:53.811Z,8.80
2018-06-03T14:39:22.000Z,7.20
2018-06-03T14:41:51.004Z,7.97
2018-06-03T14:44:19.182Z,8.57
2018-06-03T14:46:47.614Z,8.00
2018-06-03T14:49:15.895Z,7.47
2018-06-03T14:51:44.289Z,7.97
2018-06-03T14:54:12.464Z,6.90
2018-06-03T14:56:41.173Z,7.90
2018-06-03T14:59:09.702Z,9.40
2018-06-03T15:01:37.978Z,9.00
2018-06-03T15:04:06.147Z,10.33
2018-06-03T15:06:34.338Z,10.97
2018-06-03T15:09:02.534Z,11.43
2018-06-03T15:11:30.803Z,10.00
2018-06-03T15:13:59.715Z,10.03
2018-06-03T15:16:28.150Z,10.33
2018-06-03T15:18:56.340Z,10.50
2018-06-03T15:21:24.537Z,9.73
2018-06-03T15:23:52.940Z,8.47
2018-06-03T15:26:21.273Z,10.63
2018-06-03T15:28:49.417Z,9.40
2018-06-03T15:31:17.557Z,9.50
2018-06-03T15:33:45.786Z,8.80
2018-06-03T15:36:14.001Z,9.60
2018-06-03T15:38:42.376Z,8.40
2018-06-03T15:41:10.523Z,9.60
2018-06-03T15:43:38.743Z,9.53
2018-06-03T15:46:06.967Z,7.97
2018-06-03T15:48:35.239Z,9.30
2018-06-03T15:51:03.471Z,7.77
2018-06-03T15:53:31.719Z,8.63
2018-06-03T15:55:59.911Z,8.43
2018-06-03T15:58:28.236Z,8.60
2018-06-03T16:00:56.505Z,8.73
2018-06-03T16:03:24.831Z,9.17
2018-06-03T16:05:53.058Z,8.60
2018-06-03T16:08:21.080Z,8.30
2018-06-03T16:10:49.492Z,8.07
2018-06-03T16:13:17.800Z,9.30
2018-06-03T16:15:46.133Z,8.80
2018-06-03T16:18:14.286Z,8.50
2018-06-03T16:20:42.585Z,9.20
2018-06-03T16:23:10.771Z,8.23
2018-06-03T16:25:38.925Z,8.40
2018-06-03T16:28:07.145Z,7.00
2018-06-03T16:30:35.444Z,7.07
2018-06-03T16:33:03.594Z,8.10
2018-06-03T16:35:31.771Z,10.00
2018-06-03T16:38:00.111Z,9.07
2018-06-03T16:40:28.273Z,10.47
2018-06-03T16:42:56.496Z,7.93
2018-06-03T16:45:24.704Z,8.40
2018-06-03T16:47:52.997Z,7.73
2018-06-03T16:50:21.208Z,8.63
2018-06-03T16:52:49.411Z,7.80
2018-06-03T16:55:17.793Z,9.00
2018-06-03T16:57:45.987Z,8.07
2018-06-03T17:00:14.221Z,9.73
2018-06-03T17:02:42.485Z,8.57
2018-06-03T17:05:10.862Z,9.70
2018-06-03T17:07:39.102Z,10.10
2018-06-03T17:10:07.392Z,9.17
2018-06-03T17:12:35.584Z,9.77
2018-06-03T17:15:03.812Z,9.27
2018-06-03T17:17:32.309Z,8.43
2018-06-03T17:20:00.427Z,8.60
2018-06-03T17:22:28.675Z,9.67
2018-06-03T17:24:56.862Z,8.80
2018-06-03T17:27:25.289Z,8.60
2018-06-03T17:29:53.383Z,10.00
2018-06-03T17:32:21.848Z,8.90
2018-06-03T17:34:50.008Z,8.77
2018-06-03T17:37:18.353Z,8.97
2018-06-03T17:39:46.710Z,8.87
2018-06-03T17:42:14.905Z,9.20
2018-06-03T17:44:43.102Z,9.53
2018-06-03T17:47:11.322Z,10.27
2018-06-03T17:49:39.598Z,10.30
2018-06-03T17:52:14.950Z,9.10
2018-06-03T17:54:43.182Z,10.07
2018-06-03T17:57:11.800Z,8.60
2018-06-03T17:59:40.042Z,9.60
2018-06-03T18:02:08.518Z,9.60
2018-06-03T18:04:36.758Z,10.70
2018-06-03T18:07:04.964Z,10.23
2018-06-03T18:09:33.279Z,9.80
2018-06-03T18:12:01.574Z,10.13
2018-06-03T18:14:29.893Z,14.60
2018-06-03T18:16:58.189Z,9.67
2018-06-03T18:19:26.387Z,36.67
2018-06-03T18:21:54.421Z,21.33
2018-06-03T18:24:22.702Z,16.80
2018-06-03T18:26:50.976Z,13.20
2018-06-03T18:29:19.334Z,16.40
2018-06-03T18:31:47.585Z,12.30
2018-06-03T18:34:15.952Z,11.30
2018-06-03T18:36:44.412Z,11.30
2018-06-03T18:39:12.613Z,10.63
2018-06-03T18:41:40.881Z,11.30
2018-06-03T18:44:09.116Z,10.10
2018-06-03T18:46:37.434Z,10.57
2018-06-03T18:49:05.604Z,16.90
2018-06-03T18:51:33.853Z,10.43
2018-06-03T18:54:02.143Z,11.70
2018-06-03T18:56:30.995Z,11.10
2018-06-03T18:58:59.907Z,19.10
2018-06-03T19:01:29.060Z,14.13
2018-06-03T19:03:57.273Z,14.97
2018-06-03T19:06:25.592Z,11.87
2018-06-03T19:08:53.874Z,22.70
2018-06-03T19:11:22.194Z,13.73
2018-06-03T19:13:51.278Z,11.27
2018-06-03T19:16:19.661Z,12.13
2018-06-03T19:18:47.945Z,12.23
2018-06-03T19:21:16.214Z,13.30
2018-06-03T19:23:44.485Z,12.63
2018-06-03T19:26:12.642Z,15.30
2018-06-03T19:28:40.923Z,15.60
2018-06-03T19:31:09.434Z,10.63
2018-06-03T19:33:37.644Z,10.20
2018-06-03T19:36:05.867Z,10.80
2018-06-03T19:38:34.121Z,11.37
2018-06-03T19:41:02.481Z,11.50
2018-06-03T19:43:30.729Z,10.67
2018-06-03T19:45:59.102Z,11.97
2018-06-03T19:48:27.361Z,12.07
2018-06-03T19:50:55.661Z,12.90
2018-06-03T19:53:23.891Z,18.33
2018-06-03T19:55:52.105Z,12.00
2018-06-03T19:58:20.410Z,32.87
2018-06-03T20:00:48.607Z,45.83
2018-06-03T20:03:17.528Z,32.90
2018-06-03T20:05:45.738Z,18.50
2018-06-03T20:08:13.984Z,14.33
2018-06-03T20:10:42.218Z,15.83
2018-06-03T20:13:10.378Z,12.23
2018-06-03T20:15:38.566Z,13.40
2018-06-03T20:18:06.848Z,14.63
2018-06-03T20:20:35.420Z,15.30
2018-06-03T20:23:03.837Z,14.57
2018-06-03T20:25:32.085Z,14.67
2018-06-03T20:28:01.084Z,15.47
2018-06-03T20:30:29.273Z,15.10
2018-06-03T20:32:57.456Z,16.17
2018-06-03T20:35:25.666Z,17.03
2018-06-03T20:37:53.882Z,15.70
2018-06-03T20:40:22.056Z,17.90
2018-06-03T20:42:50.375Z,16.50
2018-06-03T20:45:18.936Z,17.50
2018-06-03T20:47:47.189Z,18.17
2018-06-03T20:50:15.526Z,16.40
2018-06-03T20:52:43.758Z,16.00
2018-06-03T20:55:11.974Z,17.23
2018-06-03T20:57:40.157Z,17.97
2018-06-03T21:00:09.109Z,17.43
2018-06-03T21:02:37.304Z,16.77
2018-06-03T21:05:05.582Z,15.30
2018-06-03T21:07:33.853Z,15.57
2018-06-03T21:10:02.053Z,14.40
2018-06-03T21:12:30.335Z,16.10
2018-06-03T21:14:58.590Z,14.97
2018-06-03T21:17:26.810Z,15.33
2018-06-03T21:19:55.163Z,16.00
2018-06-03T21:22:23.423Z,16.60
2018-06-03T21:24:51.855Z,15.63
2018-06-03T21:27:20.027Z,15.40
2018-06-03T21:29:48.267Z,16.27
2018-06-03T21:32:16.511Z,15.97
2018-06-03T21:34:44.694Z,17.37
2018-06-03T21:37:13.098Z,17.17
2018-06-03T21:39:41.982Z,18.70
2018-06-03T21:42:10.192Z,19.13
2018-06-03T21:44:38.834Z,18.97
2018-06-03T21:47:07.614Z,17.80
2018-06-03T21:49:35.847Z,19.23
2018-06-03T21:52:04.064Z,22.43
2018-06-03T21:54:32.293Z,18.80
2018-06-03T21:57:00.446Z,19.93
2018-06-03T21:59:28.624Z,18.70
2018-06-03T22:01:56.986Z,19.33
2018-06-03T22:04:26.406Z,18.97
2018-06-03T22:06:54.826Z,19.40
2018-06-03T22:09:22.999Z,19.57
2018-06-03T22:11:51.162Z,20.37
2018-06-03T22:14:19.422Z,19.93
2018-06-03T22:16:47.669Z,19.30
2018-06-03T22:19:15.835Z,18.00
2018-06-03T22:21:44.148Z,19.63
2018-06-03T22:24:12.406Z,20.93
2018-06-03T22:26:40.552Z,20.57
2018-06-03T22:29:08.832Z,21.37
2018-06-03T22:31:37.126Z,21.10
2018-06-03T22:34:05.360Z,19.87
2018-06-03T22:36:33.551Z,20.37
2018-06-03T22:39:01.705Z,20.00
2018-06-03T22:41:29.912Z,20.60
2018-06-03T22:43:58.067Z,19.93
2018-06-03T22:46:27.675Z,19.60
2018-06-03T22:48:55.826Z,20.00
2018-06-03T22:51:24.024Z,19.57
2018-06-03T22:53:52.242Z,19.90
2018-06-03T22:56:20.492Z,20.77
2018-06-03T22:58:48.864Z,23.10
2018-06-03T23:01:17.251Z,21.10
2018-06-03T23:03:45.339Z,21.60
2018-06-03T23:06:13.639Z,22.00
2018-06-03T23:08:41.792Z,21.27
2018-06-03T23:11:10.109Z,21.30
2018-06-03T23:13:38.286Z,19.80
2018-06-03T23:16:06.544Z,23.70
2018-06-03T23:18:34.830Z,22.80
2018-06-03T23:21:03.045Z,21.97
2018-06-03T23:23:31.530Z,21.00
2018-06-03T23:25:59.785Z,20.50
2018-06-03T23:28:27.982Z,20.70
2018-06-03T23:30:56.202Z,21.60
2018-06-03T23:33:24.344Z,23.00
2018-06-03T23:35:53.461Z,22.13
2018-06-03T23:38:21.678Z,20.67
2018-06-03T23:40:49.934Z,18.80
2018-06-03T23:43:18.274Z,20.87
2018-06-03T23:45:46.588Z,21.57
2018-06-03T23:48:14.735Z,20.67
2018-06-03T23:50:42.906Z,20.63
2018-06-03T23:53:11.316Z,21.00
2018-06-03T23:55:39.484Z,21.13
2018-06-03T23:58:07.860Z,21.50
